sensor_id;sensor_type;location;lat;lon;timestamp;temperature;humidity
17639;DHT22;8938;53.546;9.954;2023-04-30T00:00:47;10.40;96.40
17639;DHT22;8938;53.546;9.954;2023-04-30T00:03:13;10.30;96.50
17639;DHT22;8938;53.546;9.954;2023-04-30T00:05:38;10.30;96.60
17639;DHT22;8938;53.546;9.954;2023-04-30T00:08:04;10.30;96.60
17639;DHT22;8938;53.546;9.954;2023-04-30T00:10:29;10.40;96.60
17639;DHT22;8938;53.546;9.954;2023-04-30T00:12:55;10.40;96.50
17639;DHT22;8938;53.546;9.954;2023-04-30T00:15:21;10.40;96.50
17639;DHT22;8938;53.546;9.954;2023-04-30T00:17:47;10.30;96.40
17639;DHT22;8938;53.546;9.954;2023-04-30T00:20:12;10.30;96.40
17639;DHT22;8938;53.546;9.954;2023-04-30T00:22:38;10.30;96.50
17639;DHT22;8938;53.546;9.954;2023-04-30T00:25:04;10.30;96.50
17639;DHT22;8938;53.546;9.954;2023-04-30T00:27:29;10.20;96.40
17639;DHT22;8938;53.546;9.954;2023-04-30T00:29:56;10.20;96.40
17639;DHT22;8938;53.546;9.954;2023-04-30T00:32:22;10.20;96.50
17639;DHT22;8938;53.546;9.954;2023-04-30T00:34:47;10.10;96.50
17639;DHT22;8938;53.546;9.954;2023-04-30T00:37:13;10.20;96.60
17639;DHT22;8938;53.546;9.954;2023-04-30T00:39:38;10.10;96.50
17639;DHT22;8938;53.546;9.954;2023-04-30T00:42:04;10.10;96.50
17639;DHT22;8938;53.546;9.954;2023-04-30T00:44:29;10.10;96.60
17639;DHT22;8938;53.546;9.954;2023-04-30T00:46:56;10.10;96.70
17639;DHT22;8938;53.546;9.954;2023-04-30T00:49:21;10.10;96.60
17639;DHT22;8938;53.546;9.954;2023-04-30T00:51:47;10.00;96.60
17639;DHT22;8938;53.546;9.954;2023-04-30T00:54:13;10.10;96.80
17639;DHT22;8938;53.546;9.954;2023-04-30T00:56:39;10.10;96.80
17639;DHT22;8938;53.546;9.954;2023-04-30T00:59:05;10.20;96.70
17639;DHT22;8938;53.546;9.954;2023-04-30T01:01:31;10.20;96.60
17639;DHT22;8938;53.546;9.954;2023-04-30T01:03:57;10.10;96.50
17639;DHT22;8938;53.546;9.954;2023-04-30T01:06:23;10.10;96.50
17639;DHT22;8938;53.546;9.954;2023-04-30T01:08:51;10.10;96.60
17639;DHT22;8938;53.546;9.954;2023-04-30T01:14:11;10.10;96.50
17639;DHT22;8938;53.546;9.954;2023-04-30T01:16:53;10.10;96.60
17639;DHT22;8938;53.546;9.954;2023-04-30T01:21:52;10.10;96.60
17639;DHT22;8938;53.546;9.954;2023-04-30T01:24:42;10.00;96.60
17639;DHT22;8938;53.546;9.954;2023-04-30T01:27:50;10.10;96.60
17639;DHT22;8938;53.546;9.954;2023-04-30T01:30:18;10.10;96.60
17639;DHT22;8938;53.546;9.954;2023-04-30T01:32:44;10.10;96.50
17639;DHT22;8938;53.546;9.954;2023-04-30T01:35:09;10.20;96.60
17639;DHT22;8938;53.546;9.954;2023-04-30T01:37:51;10.20;96.60
17639;DHT22;8938;53.546;9.954;2023-04-30T01:40:52;10.30;96.60
17639;DHT22;8938;53.546;9.954;2023-04-30T01:46:23;10.20;96.50
17639;DHT22;8938;53.546;9.954;2023-04-30T01:49:52;10.10;96.50
17639;DHT22;8938;53.546;9.954;2023-04-30T01:51:42;10.10;96.60
17639;DHT22;8938;53.546;9.954;2023-04-30T01:57:10;10.10;96.70
17639;DHT22;8938;53.546;9.954;2023-04-30T01:59:38;10.20;96.60
17639;DHT22;8938;53.546;9.954;2023-04-30T02:02:05;10.20;96.60
17639;DHT22;8938;53.546;9.954;2023-04-30T02:04:30;10.20;96.50
17639;DHT22;8938;53.546;9.954;2023-04-30T02:06:57;10.30;96.60
17639;DHT22;8938;53.546;9.954;2023-04-30T02:09:23;10.30;96.50
17639;DHT22;8938;53.546;9.954;2023-04-30T02:11:49;10.30;96.40
17639;DHT22;8938;53.546;9.954;2023-04-30T02:14:15;10.20;96.30
17639;DHT22;8938;53.546;9.954;2023-04-30T02:16:40;10.10;96.20
17639;DHT22;8938;53.546;9.954;2023-04-30T02:19:06;10.00;96.30
17639;DHT22;8938;53.546;9.954;2023-04-30T02:21:37;9.90;96.40
17639;DHT22;8938;53.546;9.954;2023-04-30T02:24:03;9.90;96.60
17639;DHT22;8938;53.546;9.954;2023-04-30T02:26:29;10.00;96.70
17639;DHT22;8938;53.546;9.954;2023-04-30T02:28:54;10.00;96.60
17639;DHT22;8938;53.546;9.954;2023-04-30T02:31:20;10.10;96.60
17639;DHT22;8938;53.546;9.954;2023-04-30T02:33:45;10.20;96.60
17639;DHT22;8938;53.546;9.954;2023-04-30T02:36:11;10.20;96.60
17639;DHT22;8938;53.546;9.954;2023-04-30T02:38:36;10.30;96.50
17639;DHT22;8938;53.546;9.954;2023-04-30T02:41:02;10.30;96.50
17639;DHT22;8938;53.546;9.954;2023-04-30T02:43:28;10.40;96.50
17639;DHT22;8938;53.546;9.954;2023-04-30T02:45:53;10.40;96.40
17639;DHT22;8938;53.546;9.954;2023-04-30T02:48:19;10.40;96.30
17639;DHT22;8938;53.546;9.954;2023-04-30T02:50:44;10.30;96.20
17639;DHT22;8938;53.546;9.954;2023-04-30T02:53:10;10.30;96.30
17639;DHT22;8938;53.546;9.954;2023-04-30T02:55:35;10.40;96.30
17639;DHT22;8938;53.546;9.954;2023-04-30T02:58:01;10.30;96.30
17639;DHT22;8938;53.546;9.954;2023-04-30T03:00:27;10.30;96.40
17639;DHT22;8938;53.546;9.954;2023-04-30T03:02:52;10.30;96.30
17639;DHT22;8938;53.546;9.954;2023-04-30T03:05:18;10.30;96.30
17639;DHT22;8938;53.546;9.954;2023-04-30T03:07:43;10.40;96.40
17639;DHT22;8938;53.546;9.954;2023-04-30T03:10:09;10.30;96.20
17639;DHT22;8938;53.546;9.954;2023-04-30T03:12:35;10.30;96.30
17639;DHT22;8938;53.546;9.954;2023-04-30T03:15:00;10.30;96.30
17639;DHT22;8938;53.546;9.954;2023-04-30T03:17:26;10.30;96.30
17639;DHT22;8938;53.546;9.954;2023-04-30T03:19:51;10.30;96.40
17639;DHT22;8938;53.546;9.954;2023-04-30T03:22:17;10.30;96.40
17639;DHT22;8938;53.546;9.954;2023-04-30T03:24:48;10.30;96.50
17639;DHT22;8938;53.546;9.954;2023-04-30T03:27:13;10.30;96.50
17639;DHT22;8938;53.546;9.954;2023-04-30T03:29:41;10.30;96.50
17639;DHT22;8938;53.546;9.954;2023-04-30T03:32:06;10.30;96.50
17639;DHT22;8938;53.546;9.954;2023-04-30T03:34:32;10.30;96.40
17639;DHT22;8938;53.546;9.954;2023-04-30T03:36:57;10.30;96.50
17639;DHT22;8938;53.546;9.954;2023-04-30T03:39:23;10.30;96.60
17639;DHT22;8938;53.546;9.954;2023-04-30T03:41:48;10.30;96.60
17639;DHT22;8938;53.546;9.954;2023-04-30T03:44:14;10.20;96.60
17639;DHT22;8938;53.546;9.954;2023-04-30T03:46:43;10.40;96.60
17639;DHT22;8938;53.546;9.954;2023-04-30T03:49:09;10.20;96.50
17639;DHT22;8938;53.546;9.954;2023-04-30T03:51:36;10.20;96.40
17639;DHT22;8938;53.546;9.954;2023-04-30T03:54:06;10.10;96.50
17639;DHT22;8938;53.546;9.954;2023-04-30T03:56:32;10.00;96.60
17639;DHT22;8938;53.546;9.954;2023-04-30T03:58:58;10.10;96.70
17639;DHT22;8938;53.546;9.954;2023-04-30T04:01:24;10.10;96.70
17639;DHT22;8938;53.546;9.954;2023-04-30T04:03:49;10.10;96.70
17639;DHT22;8938;53.546;9.954;2023-04-30T04:06:15;10.10;96.70
17639;DHT22;8938;53.546;9.954;2023-04-30T04:08:41;10.10;96.60
17639;DHT22;8938;53.546;9.954;2023-04-30T04:11:10;10.10;96.50
17639;DHT22;8938;53.546;9.954;2023-04-30T04:13:36;10.00;96.60
17639;DHT22;8938;53.546;9.954;2023-04-30T04:16:01;10.00;96.70
17639;DHT22;8938;53.546;9.954;2023-04-30T04:18:27;9.90;96.70
17639;DHT22;8938;53.546;9.954;2023-04-30T04:20:54;9.90;96.70
17639;DHT22;8938;53.546;9.954;2023-04-30T04:23:20;9.90;96.80
17639;DHT22;8938;53.546;9.954;2023-04-30T04:25:46;9.90;96.70
17639;DHT22;8938;53.546;9.954;2023-04-30T04:28:14;9.90;96.80
17639;DHT22;8938;53.546;9.954;2023-04-30T04:30:40;9.90;96.80
17639;DHT22;8938;53.546;9.954;2023-04-30T04:33:05;10.00;96.90
17639;DHT22;8938;53.546;9.954;2023-04-30T04:35:32;10.10;96.90
17639;DHT22;8938;53.546;9.954;2023-04-30T04:37:57;10.20;96.80
17639;DHT22;8938;53.546;9.954;2023-04-30T04:40:23;10.20;96.80
17639;DHT22;8938;53.546;9.954;2023-04-30T04:42:49;10.20;96.70
17639;DHT22;8938;53.546;9.954;2023-04-30T04:45:16;10.20;96.70
17639;DHT22;8938;53.546;9.954;2023-04-30T04:47:41;10.20;96.70
17639;DHT22;8938;53.546;9.954;2023-04-30T04:50:07;10.20;96.70
17639;DHT22;8938;53.546;9.954;2023-04-30T04:52:33;10.20;96.60
17639;DHT22;8938;53.546;9.954;2023-04-30T04:54:58;10.20;96.70
17639;DHT22;8938;53.546;9.954;2023-04-30T04:57:24;10.20;96.90
17639;DHT22;8938;53.546;9.954;2023-04-30T04:59:50;10.20;96.90
17639;DHT22;8938;53.546;9.954;2023-04-30T05:02:15;10.30;97.00
17639;DHT22;8938;53.546;9.954;2023-04-30T05:04:41;10.20;97.20
17639;DHT22;8938;53.546;9.954;2023-04-30T05:07:06;10.30;97.40
17639;DHT22;8938;53.546;9.954;2023-04-30T05:09:32;10.30;97.60
17639;DHT22;8938;53.546;9.954;2023-04-30T05:11:58;10.30;97.50
17639;DHT22;8938;53.546;9.954;2023-04-30T05:14:23;10.40;97.70
17639;DHT22;8938;53.546;9.954;2023-04-30T05:16:49;10.40;97.70
17639;DHT22;8938;53.546;9.954;2023-04-30T05:19:14;10.50;97.80
17639;DHT22;8938;53.546;9.954;2023-04-30T05:21:40;10.50;98.00
17639;DHT22;8938;53.546;9.954;2023-04-30T05:24:05;10.50;98.20
17639;DHT22;8938;53.546;9.954;2023-04-30T05:26:31;10.60;98.50
17639;DHT22;8938;53.546;9.954;2023-04-30T05:28:56;10.60;98.30
17639;DHT22;8938;53.546;9.954;2023-04-30T05:31:22;10.70;98.30
17639;DHT22;8938;53.546;9.954;2023-04-30T05:33:47;10.70;98.40
17639;DHT22;8938;53.546;9.954;2023-04-30T05:36:13;10.80;98.50
17639;DHT22;8938;53.546;9.954;2023-04-30T05:38:39;10.80;98.50
17639;DHT22;8938;53.546;9.954;2023-04-30T05:41:04;10.90;98.60
17639;DHT22;8938;53.546;9.954;2023-04-30T05:43:30;10.90;98.50
17639;DHT22;8938;53.546;9.954;2023-04-30T05:45:56;11.00;98.40
17639;DHT22;8938;53.546;9.954;2023-04-30T05:48:21;11.00;98.30
17639;DHT22;8938;53.546;9.954;2023-04-30T05:50:47;10.90;98.10
17639;DHT22;8938;53.546;9.954;2023-04-30T05:53:12;10.90;98.20
17639;DHT22;8938;53.546;9.954;2023-04-30T05:55:38;11.00;98.20
17639;DHT22;8938;53.546;9.954;2023-04-30T05:58:04;11.00;97.90
17639;DHT22;8938;53.546;9.954;2023-04-30T06:00:29;11.10;97.90
17639;DHT22;8938;53.546;9.954;2023-04-30T06:02:55;11.10;97.80
17639;DHT22;8938;53.546;9.954;2023-04-30T06:05:21;11.20;97.80
17639;DHT22;8938;53.546;9.954;2023-04-30T06:07:46;11.30;97.80
17639;DHT22;8938;53.546;9.954;2023-04-30T06:10:12;11.30;97.60
17639;DHT22;8938;53.546;9.954;2023-04-30T06:12:38;11.30;97.50
17639;DHT22;8938;53.546;9.954;2023-04-30T06:15:05;11.40;97.20
17639;DHT22;8938;53.546;9.954;2023-04-30T06:17:31;11.40;97.10
17639;DHT22;8938;53.546;9.954;2023-04-30T06:19:56;11.50;97.10
17639;DHT22;8938;53.546;9.954;2023-04-30T06:22:25;11.60;97.00
17639;DHT22;8938;53.546;9.954;2023-04-30T06:24:50;11.60;97.00
17639;DHT22;8938;53.546;9.954;2023-04-30T06:27:16;11.70;96.70
17639;DHT22;8938;53.546;9.954;2023-04-30T06:29:41;11.70;96.70
17639;DHT22;8938;53.546;9.954;2023-04-30T06:32:07;11.70;95.80
17639;DHT22;8938;53.546;9.954;2023-04-30T06:34:33;11.70;94.60
17639;DHT22;8938;53.546;9.954;2023-04-30T06:36:58;11.70;94.50
17639;DHT22;8938;53.546;9.954;2023-04-30T06:39:24;11.70;94.50
17639;DHT22;8938;53.546;9.954;2023-04-30T06:41:49;11.70;94.20
17639;DHT22;8938;53.546;9.954;2023-04-30T06:44:16;11.80;94.00
17639;DHT22;8938;53.546;9.954;2023-04-30T06:46:43;11.80;93.80
17639;DHT22;8938;53.546;9.954;2023-04-30T06:49:08;11.90;93.60
17639;DHT22;8938;53.546;9.954;2023-04-30T06:51:34;11.80;93.40
17639;DHT22;8938;53.546;9.954;2023-04-30T06:53:59;11.90;93.50
17639;DHT22;8938;53.546;9.954;2023-04-30T06:56:25;12.00;93.50
17639;DHT22;8938;53.546;9.954;2023-04-30T06:58:51;12.10;93.30
17639;DHT22;8938;53.546;9.954;2023-04-30T07:01:16;12.20;92.90
17639;DHT22;8938;53.546;9.954;2023-04-30T07:03:42;12.30;92.80
17639;DHT22;8938;53.546;9.954;2023-04-30T07:06:07;12.40;92.60
17639;DHT22;8938;53.546;9.954;2023-04-30T07:08:33;12.50;93.00
17639;DHT22;8938;53.546;9.954;2023-04-30T07:10:58;12.70;92.90
17639;DHT22;8938;53.546;9.954;2023-04-30T07:13:24;12.80;92.00
17639;DHT22;8938;53.546;9.954;2023-04-30T07:15:49;12.90;92.10
17639;DHT22;8938;53.546;9.954;2023-04-30T07:18:15;12.90;91.40
17639;DHT22;8938;53.546;9.954;2023-04-30T07:20:41;12.80;91.10
17639;DHT22;8938;53.546;9.954;2023-04-30T07:23:07;12.70;90.90
17639;DHT22;8938;53.546;9.954;2023-04-30T07:25:33;12.70;91.10
17639;DHT22;8938;53.546;9.954;2023-04-30T07:27:59;12.70;91.40
17639;DHT22;8938;53.546;9.954;2023-04-30T07:30:24;12.90;91.50
17639;DHT22;8938;53.546;9.954;2023-04-30T07:32:50;13.00;91.10
17639;DHT22;8938;53.546;9.954;2023-04-30T07:35:16;13.10;90.90
17639;DHT22;8938;53.546;9.954;2023-04-30T07:37:42;13.20;91.00
17639;DHT22;8938;53.546;9.954;2023-04-30T07:40:08;13.30;91.00
17639;DHT22;8938;53.546;9.954;2023-04-30T07:42:38;13.40;90.60
17639;DHT22;8938;53.546;9.954;2023-04-30T07:45:05;13.60;90.90
17639;DHT22;8938;53.546;9.954;2023-04-30T07:47:31;13.60;90.30
17639;DHT22;8938;53.546;9.954;2023-04-30T07:49:56;13.50;89.60
17639;DHT22;8938;53.546;9.954;2023-04-30T07:52:22;13.50;90.00
17639;DHT22;8938;53.546;9.954;2023-04-30T07:54:47;13.50;90.00
17639;DHT22;8938;53.546;9.954;2023-04-30T07:57:13;13.50;90.00
17639;DHT22;8938;53.546;9.954;2023-04-30T07:59:38;13.60;89.80
17639;DHT22;8938;53.546;9.954;2023-04-30T08:02:04;13.70;89.60
17639;DHT22;8938;53.546;9.954;2023-04-30T08:04:29;13.70;89.70
17639;DHT22;8938;53.546;9.954;2023-04-30T08:06:55;13.70;89.70
17639;DHT22;8938;53.546;9.954;2023-04-30T08:09:20;13.70;89.20
17639;DHT22;8938;53.546;9.954;2023-04-30T08:11:46;13.70;88.40
17639;DHT22;8938;53.546;9.954;2023-04-30T08:14:11;13.60;89.30
17639;DHT22;8938;53.546;9.954;2023-04-30T08:16:37;13.70;89.50
17639;DHT22;8938;53.546;9.954;2023-04-30T08:19:02;13.70;88.60
17639;DHT22;8938;53.546;9.954;2023-04-30T08:21:29;13.70;88.40
17639;DHT22;8938;53.546;9.954;2023-04-30T08:23:55;13.70;88.90
17639;DHT22;8938;53.546;9.954;2023-04-30T08:26:21;13.90;89.10
17639;DHT22;8938;53.546;9.954;2023-04-30T08:28:47;14.00;88.50
17639;DHT22;8938;53.546;9.954;2023-04-30T08:31:13;14.00;87.50
17639;DHT22;8938;53.546;9.954;2023-04-30T08:33:39;14.00;87.40
17639;DHT22;8938;53.546;9.954;2023-04-30T08:36:05;14.00;87.80
17639;DHT22;8938;53.546;9.954;2023-04-30T08:38:31;13.90;87.20
17639;DHT22;8938;53.546;9.954;2023-04-30T08:41:13;14.00;87.50
17639;DHT22;8938;53.546;9.954;2023-04-30T08:43:39;14.10;87.60
17639;DHT22;8938;53.546;9.954;2023-04-30T08:46:06;14.20;87.20
17639;DHT22;8938;53.546;9.954;2023-04-30T08:48:32;14.30;86.50
17639;DHT22;8938;53.546;9.954;2023-04-30T08:51:02;14.30;85.50
17639;DHT22;8938;53.546;9.954;2023-04-30T08:53:29;14.20;85.20
17639;DHT22;8938;53.546;9.954;2023-04-30T08:55:56;14.30;86.20
17639;DHT22;8938;53.546;9.954;2023-04-30T08:58:22;14.40;86.20
17639;DHT22;8938;53.546;9.954;2023-04-30T09:00:47;14.40;85.10
17639;DHT22;8938;53.546;9.954;2023-04-30T09:03:13;14.30;85.00
17639;DHT22;8938;53.546;9.954;2023-04-30T09:05:38;14.20;85.60
17639;DHT22;8938;53.546;9.954;2023-04-30T09:08:05;14.20;86.10
17639;DHT22;8938;53.546;9.954;2023-04-30T09:10:32;14.30;85.70
17639;DHT22;8938;53.546;9.954;2023-04-30T09:13:06;14.20;84.90
17639;DHT22;8938;53.546;9.954;2023-04-30T09:15:33;14.30;85.60
17639;DHT22;8938;53.546;9.954;2023-04-30T09:18:18;14.40;85.30
17639;DHT22;8938;53.546;9.954;2023-04-30T09:20:55;14.50;85.30
17639;DHT22;8938;53.546;9.954;2023-04-30T09:23:21;14.70;85.60
17639;DHT22;8938;53.546;9.954;2023-04-30T09:25:47;15.90;86.70
17639;DHT22;8938;53.546;9.954;2023-04-30T09:28:13;18.00;82.30
17639;DHT22;8938;53.546;9.954;2023-04-30T09:30:42;19.80;79.70
17639;DHT22;8938;53.546;9.954;2023-04-30T09:33:08;21.60;78.00
17639;DHT22;8938;53.546;9.954;2023-04-30T09:35:35;23.10;75.80
17639;DHT22;8938;53.546;9.954;2023-04-30T09:38:01;24.10;70.00
17639;DHT22;8938;53.546;9.954;2023-04-30T09:40:38;24.80;67.80
17639;DHT22;8938;53.546;9.954;2023-04-30T09:43:05;25.50;67.20
17639;DHT22;8938;53.546;9.954;2023-04-30T09:45:47;26.00;66.50
17639;DHT22;8938;53.546;9.954;2023-04-30T09:48:26;26.30;63.90
17639;DHT22;8938;53.546;9.954;2023-04-30T09:50:52;26.60;62.80
17639;DHT22;8938;53.546;9.954;2023-04-30T09:53:18;26.70;61.80
17639;DHT22;8938;53.546;9.954;2023-04-30T09:55:50;26.60;60.90
17639;DHT22;8938;53.546;9.954;2023-04-30T09:58:17;26.60;60.00
17639;DHT22;8938;53.546;9.954;2023-04-30T10:00:44;26.60;60.50
17639;DHT22;8938;53.546;9.954;2023-04-30T10:03:12;26.90;58.90
17639;DHT22;8938;53.546;9.954;2023-04-30T10:05:43;26.90;59.50
17639;DHT22;8938;53.546;9.954;2023-04-30T10:08:36;26.90;58.20
17639;DHT22;8938;53.546;9.954;2023-04-30T10:11:05;26.20;57.60
17639;DHT22;8938;53.546;9.954;2023-04-30T10:13:34;25.80;57.40
17639;DHT22;8938;53.546;9.954;2023-04-30T10:21:44;24.40;59.20
17639;DHT22;8938;53.546;9.954;2023-04-30T10:24:12;24.70;59.30
17639;DHT22;8938;53.546;9.954;2023-04-30T10:26:39;24.80;57.70
17639;DHT22;8938;53.546;9.954;2023-04-30T10:29:06;24.40;58.20
17639;DHT22;8938;53.546;9.954;2023-04-30T10:31:32;24.10;58.70
17639;DHT22;8938;53.546;9.954;2023-04-30T10:36:42;23.90;58.90
17639;DHT22;8938;53.546;9.954;2023-04-30T10:39:10;23.60;58.90
17639;DHT22;8938;53.546;9.954;2023-04-30T10:41:37;23.10;59.00
17639;DHT22;8938;53.546;9.954;2023-04-30T10:44:03;22.40;60.00
17639;DHT22;8938;53.546;9.954;2023-04-30T10:46:29;22.00;60.70
17639;DHT22;8938;53.546;9.954;2023-04-30T10:48:55;21.30;60.60
17639;DHT22;8938;53.546;9.954;2023-04-30T10:51:21;20.80;61.60
17639;DHT22;8938;53.546;9.954;2023-04-30T10:53:49;20.20;62.60
17639;DHT22;8938;53.546;9.954;2023-04-30T10:56:29;19.50;63.40
17639;DHT22;8938;53.546;9.954;2023-04-30T10:58:58;18.90;64.70
17639;DHT22;8938;53.546;9.954;2023-04-30T11:01:25;18.50;65.80
17639;DHT22;8938;53.546;9.954;2023-04-30T11:04:08;18.20;66.50
17639;DHT22;8938;53.546;9.954;2023-04-30T11:09:43;17.40;68.40
17639;DHT22;8938;53.546;9.954;2023-04-30T11:12:14;17.20;69.00
17639;DHT22;8938;53.546;9.954;2023-04-30T11:14:43;17.20;69.60
17639;DHT22;8938;53.546;9.954;2023-04-30T11:17:10;17.20;70.40
17639;DHT22;8938;53.546;9.954;2023-04-30T11:19:44;17.20;70.70
17639;DHT22;8938;53.546;9.954;2023-04-30T11:27:25;17.00;71.10
17639;DHT22;8938;53.546;9.954;2023-04-30T11:29:52;17.00;71.30
17639;DHT22;8938;53.546;9.954;2023-04-30T11:32:22;17.00;71.50
17639;DHT22;8938;53.546;9.954;2023-04-30T11:34:49;17.10;71.60
17639;DHT22;8938;53.546;9.954;2023-04-30T11:37:33;17.10;71.70
17639;DHT22;8938;53.546;9.954;2023-04-30T11:40:04;16.90;71.80
17639;DHT22;8938;53.546;9.954;2023-04-30T11:42:30;16.80;72.20
17639;DHT22;8938;53.546;9.954;2023-04-30T11:45:07;16.90;73.00
17639;DHT22;8938;53.546;9.954;2023-04-30T11:47:44;17.00;73.40
17639;DHT22;8938;53.546;9.954;2023-04-30T11:50:12;17.30;73.10
17639;DHT22;8938;53.546;9.954;2023-04-30T11:52:43;17.30;72.80
17639;DHT22;8938;53.546;9.954;2023-04-30T11:55:15;17.40;72.00
17639;DHT22;8938;53.546;9.954;2023-04-30T11:57:45;17.30;72.20
17639;DHT22;8938;53.546;9.954;2023-04-30T12:02:42;17.60;72.20
17639;DHT22;8938;53.546;9.954;2023-04-30T12:05:29;17.60;70.80
17639;DHT22;8938;53.546;9.954;2023-04-30T12:07:59;17.60;71.40
17639;DHT22;8938;53.546;9.954;2023-04-30T12:10:25;17.60;72.30
17639;DHT22;8938;53.546;9.954;2023-04-30T12:12:51;17.70;72.10
17639;DHT22;8938;53.546;9.954;2023-04-30T12:15:23;17.60;71.90
17639;DHT22;8938;53.546;9.954;2023-04-30T12:17:53;17.70;72.40
17639;DHT22;8938;53.546;9.954;2023-04-30T12:20:20;17.70;72.20
17639;DHT22;8938;53.546;9.954;2023-04-30T12:22:49;17.70;72.40
17639;DHT22;8938;53.546;9.954;2023-04-30T12:25:19;17.70;72.20
17639;DHT22;8938;53.546;9.954;2023-04-30T12:27:46;17.80;72.10
17639;DHT22;8938;53.546;9.954;2023-04-30T12:30:12;17.80;72.10
17639;DHT22;8938;53.546;9.954;2023-04-30T12:32:43;17.90;72.20
17639;DHT22;8938;53.546;9.954;2023-04-30T12:35:14;18.00;71.70
17639;DHT22;8938;53.546;9.954;2023-04-30T12:37:44;18.00;71.50
17639;DHT22;8938;53.546;9.954;2023-04-30T12:40:11;17.90;71.70
17639;DHT22;8938;53.546;9.954;2023-04-30T12:42:37;18.00;71.60
17639;DHT22;8938;53.546;9.954;2023-04-30T12:45:03;18.10;72.00
17639;DHT22;8938;53.546;9.954;2023-04-30T12:47:29;18.20;72.10
17639;DHT22;8938;53.546;9.954;2023-04-30T12:49:55;18.40;71.70
17639;DHT22;8938;53.546;9.954;2023-04-30T12:52:24;18.50;72.30
17639;DHT22;8938;53.546;9.954;2023-04-30T12:54:50;18.70;72.60
17639;DHT22;8938;53.546;9.954;2023-04-30T12:57:16;18.80;72.20
17639;DHT22;8938;53.546;9.954;2023-04-30T13:02:16;18.90;71.40
17639;DHT22;8938;53.546;9.954;2023-04-30T13:04:42;18.80;71.50
17639;DHT22;8938;53.546;9.954;2023-04-30T13:07:09;18.90;71.90
17639;DHT22;8938;53.546;9.954;2023-04-30T13:09:36;19.00;72.00
17639;DHT22;8938;53.546;9.954;2023-04-30T13:12:02;19.10;71.40
17639;DHT22;8938;53.546;9.954;2023-04-30T13:14:29;19.00;71.00
17639;DHT22;8938;53.546;9.954;2023-04-30T13:16:55;18.90;70.40
17639;DHT22;8938;53.546;9.954;2023-04-30T13:19:21;18.80;71.00
17639;DHT22;8938;53.546;9.954;2023-04-30T13:21:46;18.80;71.30
17639;DHT22;8938;53.546;9.954;2023-04-30T13:24:12;18.90;71.70
17639;DHT22;8938;53.546;9.954;2023-04-30T13:26:38;19.00;70.60
17639;DHT22;8938;53.546;9.954;2023-04-30T13:29:04;18.90;70.60
17639;DHT22;8938;53.546;9.954;2023-04-30T13:31:30;19.00;71.10
17639;DHT22;8938;53.546;9.954;2023-04-30T13:33:55;18.90;70.90
17639;DHT22;8938;53.546;9.954;2023-04-30T13:36:21;18.90;70.80
17639;DHT22;8938;53.546;9.954;2023-04-30T13:38:47;18.90;70.70
17639;DHT22;8938;53.546;9.954;2023-04-30T13:41:13;18.90;70.70
17639;DHT22;8938;53.546;9.954;2023-04-30T13:43:38;18.90;70.90
17639;DHT22;8938;53.546;9.954;2023-04-30T13:46:09;19.00;70.60
17639;DHT22;8938;53.546;9.954;2023-04-30T13:48:34;18.90;70.40
17639;DHT22;8938;53.546;9.954;2023-04-30T13:51:00;18.90;70.50
17639;DHT22;8938;53.546;9.954;2023-04-30T13:53:26;18.90;70.60
17639;DHT22;8938;53.546;9.954;2023-04-30T13:55:52;18.80;70.30
17639;DHT22;8938;53.546;9.954;2023-04-30T13:58:18;18.60;71.10
17639;DHT22;8938;53.546;9.954;2023-04-30T14:00:44;18.50;71.50
17639;DHT22;8938;53.546;9.954;2023-04-30T14:03:10;18.50;71.10
17639;DHT22;8938;53.546;9.954;2023-04-30T14:05:36;18.50;71.70
17639;DHT22;8938;53.546;9.954;2023-04-30T14:08:03;18.40;71.00
17639;DHT22;8938;53.546;9.954;2023-04-30T14:10:29;18.40;71.10
17639;DHT22;8938;53.546;9.954;2023-04-30T14:12:54;18.40;70.80
17639;DHT22;8938;53.546;9.954;2023-04-30T14:15:20;18.30;69.80
17639;DHT22;8938;53.546;9.954;2023-04-30T14:17:45;18.30;70.40
17639;DHT22;8938;53.546;9.954;2023-04-30T14:20:11;18.30;70.90
17639;DHT22;8938;53.546;9.954;2023-04-30T14:22:37;18.30;70.90
17639;DHT22;8938;53.546;9.954;2023-04-30T14:25:04;18.20;70.60
17639;DHT22;8938;53.546;9.954;2023-04-30T14:27:30;18.10;70.00
17639;DHT22;8938;53.546;9.954;2023-04-30T14:29:55;18.00;70.00
17639;DHT22;8938;53.546;9.954;2023-04-30T14:32:24;17.90;70.50
17639;DHT22;8938;53.546;9.954;2023-04-30T14:34:50;18.00;71.00
17639;DHT22;8938;53.546;9.954;2023-04-30T14:37:15;18.00;70.70
17639;DHT22;8938;53.546;9.954;2023-04-30T14:39:41;18.10;70.10
17639;DHT22;8938;53.546;9.954;2023-04-30T14:42:08;18.10;71.20
17639;DHT22;8938;53.546;9.954;2023-04-30T14:44:33;18.20;70.80
17639;DHT22;8938;53.546;9.954;2023-04-30T14:47:00;18.20;70.70
17639;DHT22;8938;53.546;9.954;2023-04-30T14:49:25;18.30;71.30
17639;DHT22;8938;53.546;9.954;2023-04-30T14:51:51;18.40;71.00
17639;DHT22;8938;53.546;9.954;2023-04-30T14:54:17;18.30;70.60
17639;DHT22;8938;53.546;9.954;2023-04-30T14:56:43;18.30;70.90
17639;DHT22;8938;53.546;9.954;2023-04-30T14:59:10;18.30;70.50
17639;DHT22;8938;53.546;9.954;2023-04-30T15:01:36;18.20;70.20
17639;DHT22;8938;53.546;9.954;2023-04-30T15:04:02;18.30;69.80
17639;DHT22;8938;53.546;9.954;2023-04-30T15:06:28;18.40;70.10
17639;DHT22;8938;53.546;9.954;2023-04-30T15:08:53;18.40;69.70
17639;DHT22;8938;53.546;9.954;2023-04-30T15:11:19;18.30;69.80
17639;DHT22;8938;53.546;9.954;2023-04-30T15:13:45;18.20;69.60
17639;DHT22;8938;53.546;9.954;2023-04-30T15:16:11;18.10;69.70
17639;DHT22;8938;53.546;9.954;2023-04-30T15:18:37;18.00;69.90
17639;DHT22;8938;53.546;9.954;2023-04-30T15:21:02;18.10;69.70
17639;DHT22;8938;53.546;9.954;2023-04-30T15:23:28;18.10;69.70
17639;DHT22;8938;53.546;9.954;2023-04-30T15:25:54;18.10;69.50
17639;DHT22;8938;53.546;9.954;2023-04-30T15:28:21;18.20;69.20
17639;DHT22;8938;53.546;9.954;2023-04-30T15:30:49;18.20;69.30
17639;DHT22;8938;53.546;9.954;2023-04-30T15:33:14;18.20;69.20
17639;DHT22;8938;53.546;9.954;2023-04-30T15:35:40;18.20;69.00
17639;DHT22;8938;53.546;9.954;2023-04-30T15:38:06;18.20;68.40
17639;DHT22;8938;53.546;9.954;2023-04-30T15:40:31;18.20;68.50
17639;DHT22;8938;53.546;9.954;2023-04-30T15:42:57;18.20;68.00
17639;DHT22;8938;53.546;9.954;2023-04-30T15:45:22;18.20;68.20
17639;DHT22;8938;53.546;9.954;2023-04-30T15:47:50;18.20;67.90
17639;DHT22;8938;53.546;9.954;2023-04-30T15:50:15;18.10;66.90
17639;DHT22;8938;53.546;9.954;2023-04-30T15:52:41;18.00;66.80
17639;DHT22;8938;53.546;9.954;2023-04-30T15:55:07;17.90;67.20
17639;DHT22;8938;53.546;9.954;2023-04-30T15:57:33;17.90;67.10
17639;DHT22;8938;53.546;9.954;2023-04-30T15:59:58;17.80;67.00
17639;DHT22;8938;53.546;9.954;2023-04-30T16:02:24;17.80;67.50
17639;DHT22;8938;53.546;9.954;2023-04-30T16:04:49;17.80;67.70
17639;DHT22;8938;53.546;9.954;2023-04-30T16:07:15;17.90;67.90
17639;DHT22;8938;53.546;9.954;2023-04-30T16:09:40;18.00;67.40
17639;DHT22;8938;53.546;9.954;2023-04-30T16:12:10;18.00;67.10
17639;DHT22;8938;53.546;9.954;2023-04-30T16:14:36;18.00;67.40
17639;DHT22;8938;53.546;9.954;2023-04-30T16:17:02;18.10;67.60
17639;DHT22;8938;53.546;9.954;2023-04-30T16:19:27;18.10;68.20